Time;durP1;ratioP1;P1;durP2;ratioP2;P2;SDS_P1;SDS_P2;PMS_P1;PMS_P2;Temp;Humidity;BMP_temperature;BMP_pressure;BME280_temperature;BME280_humidity;BME280_pressure;Samples;Min_cycle;Max_cycle;Signal;HPM_P1;HPM_P2
2022/06/21 00:00:32;;;;;;;11.43;5.03;;;;;;;25.16;52.57;97950.81;4486358;32;20197;-83
2022/06/21 00:03:06;;;;;;;12.70;5.28;;;;;;;25.48;51.45;97947.50;4486347;32;20076;-84
2022/06/21 00:05:34;;;;;;;11.88;5.18;;;;;;;25.20;52.11;97928.63;4486449;32;20108;-82
2022/06/21 00:08:04;;;;;;;11.38;4.90;;;;;;;25.07;52.26;97920.47;4486524;32;20123;-84
2022/06/21 00:10:36;;;;;;;13.93;5.35;;;;;;;25.31;51.29;97920.03;4486732;32;20115;-84
2022/06/21 00:13:32;;;;;;;13.55;5.10;;;;;;;25.14;51.40;97913.25;4486483;31;20089;-84
2022/06/21 00:16:04;;;;;;;12.75;4.75;;;;;;;25.49;49.62;97915.97;4485042;32;20152;-84
2022/06/21 00:18:31;;;;;;;11.98;4.50;;;;;;;25.50;48.79;97918.47;4487392;31;20146;-84
2022/06/21 00:20:57;;;;;;;9.95;3.80;;;;;;;25.31;48.78;97921.91;4486203;32;20114;-84
2022/06/21 00:23:25;;;;;;;9.90;3.58;;;;;;;25.39;47.91;97915.50;4487292;31;20085;-83
2022/06/21 00:25:51;;;;;;;10.57;4.07;;;;;;;25.47;46.51;97939.59;4486174;32;20100;-84
2022/06/21 00:28:18;;;;;;;9.25;3.45;;;;;;;25.52;46.77;97937.16;4485941;32;20478;-84
2022/06/21 00:30:46;;;;;;;13.62;3.85;;;;;;;25.58;46.50;97941.72;4486153;32;20513;-84
2022/06/21 00:33:11;;;;;;;;;;;;;;;25.61;45.41;97940.50;4486458;32;20167;-84
2022/06/21 00:35:37;;;;;;;9.77;3.53;;;;;;;25.61;44.34;97944.03;4487219;31;20240;-84
2022/06/21 00:38:03;;;;;;;8.80;2.83;;;;;;;25.51;44.52;97948.94;4486089;32;20123;-84
2022/06/21 00:40:31;;;;;;;9.32;3.30;;;;;;;25.58;44.38;97960.63;4487183;31;20072;-84
2022/06/21 00:43:03;;;;;;;9.13;3.17;;;;;;;25.67;43.91;97961.25;4487195;31;20099;-85
2022/06/21 00:45:31;;;;;;;8.40;3.42;;;;;;;25.54;44.37;97942.34;4487237;31;20217;-84
2022/06/21 00:48:00;;;;;;;8.20;2.97;;;;;;;25.66;44.29;97946.94;4487287;31;20086;-85
2022/06/21 00:50:26;;;;;;;9.90;2.97;;;;;;;25.76;44.05;97945.75;4472886;32;20481;-84
2022/06/21 00:53:13;;;;;;;9.43;3.30;;;;;;;25.61;44.20;97927.00;4487130;31;20151;-85
2022/06/21 00:55:53;;;;;;;7.55;2.45;;;;;;;25.36;44.39;97934.75;4487105;31;20084;-84
2022/06/21 00:58:21;;;;;;;11.57;2.85;;;;;;;25.46;43.62;97940.66;4485976;32;20144;-84
2022/06/21 01:00:49;;;;;;;7.37;2.70;;;;;;;25.28;44.10;97942.00;4486742;31;20569;-84
2022/06/21 01:03:19;;;;;;;7.97;2.70;;;;;;;25.33;43.68;97943.28;4487082;31;20084;-84
2022/06/21 01:05:45;;;;;;;8.48;2.70;;;;;;;25.05;44.03;97941.38;4485927;32;20168;-85
2022/06/21 01:08:17;;;;;;;8.37;2.57;;;;;;;24.90;43.93;97945.03;4485945;32;20096;-84
2022/06/21 01:10:44;;;;;;;9.88;2.65;;;;;;;24.51;44.64;97943.69;4485919;32;20190;-84
2022/06/21 01:13:17;;;;;;;7.85;2.62;;;;;;;24.70;44.52;97939.47;4487104;31;20080;-84
2022/06/21 01:15:45;;;;;;;14.75;2.95;;;;;;;24.86;44.28;97926.75;4485742;32;20489;-84
2022/06/21 01:18:12;;;;;;;7.70;2.70;;;;;;;24.86;44.87;97941.06;4487095;31;20101;-84
2022/06/21 01:20:40;;;;;;;10.68;3.37;;;;;;;24.85;45.32;97907.06;4485870;32;20155;-84
2022/06/21 01:23:12;;;;;;;9.52;3.33;;;;;;;24.75;45.58;97892.28;4485758;32;20477;-84
2022/06/21 01:26:06;;;;;;;9.80;3.00;;;;;;;24.53;46.21;97890.47;4485720;32;20187;-84
2022/06/21 01:28:32;;;;;;;11.20;3.20;;;;;;;24.31;46.89;97903.06;4486689;31;20127;-83
2022/06/21 01:30:58;;;;;;;8.27;2.87;;;;;;;24.01;47.74;97906.91;4485738;32;20102;-83
2022/06/21 01:33:29;;;;;;;9.55;3.42;;;;;;;24.07;47.69;97917.78;4486738;31;20080;-83
2022/06/21 01:35:56;;;;;;;10.25;3.30;;;;;;;23.71;48.41;97926.63;4485478;31;20175;-83
2022/06/21 01:38:29;;;;;;;9.98;3.60;;;;;;;23.64;48.89;97936.50;4485743;32;20096;-83
2022/06/21 01:41:03;;;;;;;9.20;2.80;;;;;;;23.65;49.30;97948.09;4486812;31;20202;-83
2022/06/21 01:43:29;;;;;;;8.20;3.25;;;;;;;23.59;49.16;97940.78;4486845;31;20080;-83
2022/06/21 01:45:58;;;;;;;9.48;3.05;;;;;;;23.60;48.92;97945.94;4485518;32;20104;-83
2022/06/21 01:48:26;;;;;;;8.70;3.20;;;;;;;23.45;49.66;97966.63;4485473;32;20104;-83
2022/06/21 01:50:55;;;;;;;12.55;3.33;;;;;;;23.38;49.64;97969.22;4485268;32;20418;-83
2022/06/21 01:53:21;;;;;;;10.07;3.50;;;;;;;23.62;48.98;97967.25;4485423;32;20075;-84
2022/06/21 01:55:54;;;;;;;9.38;3.20;;;;;;;23.75;48.62;97962.06;4485337;32;20148;-83
2022/06/21 01:58:23;;;;;;;9.52;3.10;;;;;;;23.51;49.05;97973.97;4486695;31;20080;-83
2022/06/21 02:00:55;;;;;;;9.40;3.45;;;;;;;23.48;49.24;97972.47;4486559;31;20470;-84
2022/06/21 02:03:25;;;;;;;8.88;3.42;;;;;;;23.83;48.52;97964.66;4485179;32;20080;-83
2022/06/21 02:05:54;;;;;;;7.85;2.95;;;;;;;23.46;49.49;97987.13;4485259;32;20096;-84
2022/06/21 02:08:24;;;;;;;12.95;3.90;;;;;;;23.27;49.93;97980.44;4485226;32;20156;-84
2022/06/21 02:10:53;;;;;;;10.25;3.50;;;;;;;22.89;51.95;97980.44;4485330;32;20084;-84
2022/06/21 02:13:27;;;;;;;11.12;4.10;;;;;;;23.04;51.88;97999.31;4487142;31;20133;-84
2022/06/21 02:15:57;;;;;;;10.07;3.87;;;;;;;23.05;52.43;97983.03;4487065;32;20158;-84
2022/06/21 02:18:23;;;;;;;10.73;3.92;;;;;;;23.08;52.52;97979.13;4487085;32;20149;-84
2022/06/21 02:20:54;;;;;;;10.77;4.30;;;;;;;23.02;52.76;97998.63;4488196;31;20101;-84
2022/06/21 02:23:22;;;;;;;13.07;4.40;;;;;;;22.87;53.20;97998.59;4488229;31;20112;-84
2022/06/21 02:25:48;;;;;;;;;;;;;;;22.66;54.08;98002.81;4488523;31;20579;-83
2022/06/21 02:28:14;;;;;;;11.27;4.72;;;;;;;22.52;54.14;97992.84;4486956;32;19988;-83
2022/06/21 02:30:41;;;;;;;11.35;4.62;;;;;;;22.33;54.98;98015.62;4488291;31;20084;-84
2022/06/21 02:33:12;;;;;;;11.63;4.68;;;;;;;22.34;55.23;98011.94;4487319;32;20232;-83
2022/06/21 02:35:59;;;;;;;14.30;4.55;;;;;;;22.56;54.30;98004.87;4487276;32;20103;-84
2022/06/21 02:38:29;;;;;;;10.65;4.32;;;;;;;22.59;53.23;98004.53;4486932;32;20109;-83
2022/06/21 02:41:11;;;;;;;11.00;4.20;;;;;;;22.67;52.61;97992.91;4488103;31;20149;-83
2022/06/21 02:43:43;;;;;;;10.52;4.10;;;;;;;22.60;52.50;98003.53;4486994;32;20079;-84
2022/06/21 02:46:12;;;;;;;9.95;4.20;;;;;;;22.31;53.18;98014.94;4486848;32;20535;-84
2022/06/21 02:48:47;;;;;;;10.63;4.35;;;;;;;22.51;52.37;98021.53;4486955;32;20169;-83
2022/06/21 02:51:20;;;;;;;9.57;3.87;;;;;;;22.40;52.96;98018.44;4486825;32;20110;-84
2022/06/21 02:54:00;;;;;;;11.90;4.18;;;;;;;22.38;53.02;98023.97;4488119;31;20084;-83
2022/06/21 02:56:35;;;;;;;11.20;4.07;;;;;;;22.14;53.25;98019.56;4487967;31;20447;-83
2022/06/21 02:59:01;;;;;;;12.05;4.28;;;;;;;22.28;52.52;97999.22;4488122;31;20560;-83
2022/06/21 03:01:34;;;;;;;9.50;4.10;;;;;;;22.43;52.01;98028.81;4488007;31;20069;-83
2022/06/21 03:04:00;;;;;;;13.00;4.55;;;;;;;22.10;53.04;98037.84;4486845;32;20088;-84
2022/06/21 03:06:26;;;;;;;9.23;3.92;;;;;;;22.04;53.33;98038.56;4487933;31;20081;-84
2022/06/21 03:09:06;;;;;;;10.10;4.10;;;;;;;21.95;53.16;98043.13;4486829;32;20101;-84
2022/06/21 03:11:40;;;;;;;9.73;3.35;;;;;;;21.94;52.71;98048.66;4486621;32;20088;-83
2022/06/21 03:14:08;;;;;;;9.65;3.92;;;;;;;21.98;51.89;98048.16;4486750;32;20427;-84
2022/06/21 03:16:34;;;;;;;8.88;3.70;;;;;;;22.08;51.47;98060.47;4486500;32;20084;-83
2022/06/21 03:19:03;;;;;;;9.95;3.50;;;;;;;22.13;51.39;98068.84;4487975;31;20096;-83
2022/06/21 03:21:34;;;;;;;9.07;4.28;;;;;;;21.94;52.05;98070.97;4473500;32;20093;-82
2022/06/21 03:24:03;;;;;;;10.00;3.80;;;;;;;21.97;52.14;98072.44;4486598;32;20443;-83
2022/06/21 03:26:29;;;;;;;9.70;3.50;;;;;;;21.84;52.25;98073.00;4486550;32;20383;-84
2022/06/21 03:28:55;;;;;;;10.23;3.67;;;;;;;21.82;52.03;98074.19;4487575;31;20101;-84
2022/06/21 03:31:26;;;;;;;10.48;3.58;;;;;;;21.74;52.22;98067.81;4487727;31;20088;-84
2022/06/21 03:34:13;;;;;;;11.12;3.60;;;;;;;21.78;51.80;98068.31;4486629;32;20095;-84
2022/06/21 03:36:39;;;;;;;10.52;3.47;;;;;;;21.72;52.08;98085.09;4486592;32;20076;-84
2022/06/21 03:39:09;;;;;;;10.00;3.80;;;;;;;21.98;51.58;98092.88;4487630;31;20143;-84
2022/06/21 03:41:45;;;;;;;8.98;3.22;;;;;;;21.88;51.43;98095.75;4486595;32;20102;-84
2022/06/21 03:44:29;;;;;;;9.05;3.70;;;;;;;21.95;51.36;98102.13;4474413;32;20124;-84
2022/06/21 03:47:14;;;;;;;10.60;3.50;;;;;;;21.98;51.11;98107.16;4486453;32;20111;-83
2022/06/21 03:49:55;;;;;;;9.70;2.85;;;;;;;21.72;51.47;98101.19;4486551;32;20135;-83
2022/06/21 03:52:43;;;;;;;8.40;3.10;;;;;;;21.49;51.28;98109.09;4486536;32;20093;-83
2022/06/21 03:55:25;;;;;;;8.02;2.90;;;;;;;21.52;50.83;98125.69;4486606;32;20080;-83
2022/06/21 03:57:53;;;;;;;6.90;2.37;;;;;;;21.63;50.53;98108.41;4486637;32;20725;-83
2022/06/21 04:00:19;;;;;;;6.20;2.37;;;;;;;21.65;48.95;98113.59;4487548;31;20159;-84
2022/06/21 04:02:52;;;;;;;6.37;2.15;;;;;;;21.52;49.11;98112.28;4486612;31;20108;-83
2022/06/21 04:05:24;;;;;;;7.07;2.42;;;;;;;21.77;48.46;98110.37;4486430;32;20123;-85
2022/06/21 04:08:00;;;;;;;18.30;3.22;;;;;;;21.95;47.65;98110.16;4487494;31;20096;-84
2022/06/21 04:10:35;;;;;;;5.65;2.20;;;;;;;21.67;47.60;98112.44;4486446;32;20112;-84
2022/06/21 04:13:16;;;;;;;5.93;2.03;;;;;;;21.97;47.47;98108.13;4486344;32;20115;-84
2022/06/21 04:15:49;;;;;;;8.38;2.08;;;;;;;22.05;47.30;98126.06;4487324;31;20107;-84
2022/06/21 04:18:36;;;;;;;5.75;2.17;;;;;;;22.28;46.80;98122.66;4473144;32;20126;-85
2022/06/21 04:21:23;;;;;;;4.78;1.90;;;;;;;22.63;45.07;98140.06;4486601;32;20108;-85
2022/06/21 04:24:13;;;;;;;4.78;1.70;;;;;;;22.80;44.17;98122.03;4487450;31;20084;-84
2022/06/21 04:27:01;;;;;;;5.97;1.80;;;;;;;23.06;43.02;98124.38;4487511;31;20153;-85
2022/06/21 04:29:35;;;;;;;6.37;1.90;;;;;;;23.24;41.15;98131.31;4486399;32;20172;-84
2022/06/21 04:32:14;;;;;;;5.03;1.62;;;;;;;23.19;41.35;98134.53;4486485;32;20445;-84
2022/06/21 04:34:48;;;;;;;4.40;1.50;;;;;;;23.50;40.42;98118.28;4486224;32;20132;-84
2022/06/21 04:37:20;;;;;;;4.62;1.58;;;;;;;23.43;39.98;98125.44;4485612;32;20174;-84
2022/06/21 04:39:49;;;;;;;3.58;1.35;;;;;;;23.43;39.80;98132.63;4473054;32;20113;-84
2022/06/21 04:42:23;;;;;;;3.17;1.30;;;;;;;23.85;38.98;98144.69;4487232;31;20089;-84
2022/06/21 04:45:03;;;;;;;4.18;1.35;;;;;;;23.65;38.17;98137.12;4486109;32;20106;-84
2022/06/21 04:47:38;;;;;;;7.43;1.40;;;;;;;23.55;38.31;98141.94;4487272;31;20092;-84
2022/06/21 04:50:13;;;;;;;3.75;1.33;;;;;;;23.70;37.14;98137.44;4486111;32;20100;-84
2022/06/21 04:53:19;;;;;;;4.12;1.20;;;;;;;23.73;37.05;98144.28;4487476;31;20110;-84
2022/06/21 04:56:13;;;;;;;3.70;1.48;;;;;;;24.15;37.07;98142.84;4440501;32;20435;-84
2022/06/21 04:58:38;;;;;;;5.22;1.30;;;;;;;24.37;36.45;98142.94;4453756;32;20112;-84
2022/06/21 05:01:29;;;;;;;3.42;1.37;;;;;;;24.50;35.99;98146.63;4440689;32;20144;-84
2022/06/21 05:03:51;;;;;;;4.25;1.40;;;;;;;24.48;35.59;98151.34;4442848;32;20445;-84
2022/06/21 05:06:16;;;;;;;4.70;1.30;;;;;;;24.73;35.36;98151.06;4440546;32;20113;-87
2022/06/21 05:08:43;;;;;;;3.45;1.25;;;;;;;24.94;35.00;98152.94;4440680;32;20194;-87
2022/06/21 05:11:11;;;;;;;5.37;1.30;;;;;;;25.05;34.21;98156.97;4453829;32;20177;-88
2022/06/21 05:13:39;;;;;;;2.83;1.23;;;;;;;24.84;35.12;98145.19;4453852;32;20196;-86
2022/06/21 05:16:21;;;;;;;2.97;1.30;;;;;;;25.21;34.67;98154.03;4453768;32;20152;-85
2022/06/21 05:18:55;;;;;;;4.22;1.33;;;;;;;25.33;33.68;98146.31;4440894;32;20130;-85
2022/06/21 05:21:30;;;;;;;4.95;1.30;;;;;;;25.12;32.23;98139.03;4440487;32;20157;-85
2022/06/21 05:23:55;;;;;;;7.87;1.70;;;;;;;25.11;32.75;98164.28;4440364;32;20164;-86
2022/06/21 05:26:34;;;;;;;7.95;1.30;;;;;;;25.16;31.86;98163.72;4440788;32;20116;-85
2022/06/21 05:29:08;;;;;;;4.25;1.25;;;;;;;25.05;32.45;98165.91;4453473;32;20580;-86
2022/06/21 05:31:39;;;;;;;12.57;1.30;;;;;;;24.92;32.41;98166.59;4455853;32;20157;-85
2022/06/21 05:34:20;;;;;;;4.03;1.35;;;;;;;25.14;31.06;98176.56;4485318;31;20772;-84
2022/06/21 05:37:01;;;;;;;3.15;1.25;;;;;;;25.15;31.01;98181.78;4490631;31;20442;-83
2022/06/21 05:39:32;;;;;;;4.50;1.10;;;;;;;24.97;30.93;98170.59;4483942;32;20139;-84
2022/06/21 05:42:01;;;;;;;2.87;1.00;;;;;;;24.85;30.47;98163.00;4491708;31;20104;-82
2022/06/21 05:44:32;;;;;;;5.45;1.30;;;;;;;24.93;30.56;98170.13;4493216;31;20107;-84
2022/06/21 05:47:10;;;;;;;3.00;1.20;;;;;;;25.12;30.21;98172.19;4485747;31;20084;-85
2022/06/21 05:49:36;;;;;;;2.83;1.20;;;;;;;25.04;29.77;98168.81;4488631;31;20084;-84
2022/06/21 05:52:06;;;;;;;2.55;1.08;;;;;;;25.03;29.94;98173.34;4493189;31;20139;-84
2022/06/21 05:54:35;;;;;;;2.90;1.12;;;;;;;24.69;30.60;98176.72;4487717;31;20152;-84
2022/06/21 05:57:02;;;;;;;3.28;1.00;;;;;;;24.67;30.31;98179.59;4498060;31;20114;-83
2022/06/21 05:59:27;;;;;;;2.58;1.08;;;;;;;24.50;30.17;98176.22;4483825;31;20104;-89
2022/06/21 06:02:10;;;;;;;10.52;1.50;;;;;;;24.46;30.74;98172.25;4495997;31;20116;-88
2022/06/21 06:04:42;;;;;;;4.55;1.00;;;;;;;24.68;29.77;98178.53;4492846;31;20107;-88
2022/06/21 06:07:11;;;;;;;3.60;1.10;;;;;;;24.48;28.64;98194.44;4489559;31;20093;-87
2022/06/21 06:09:43;;;;;;;5.53;1.15;;;;;;;23.94;29.36;98194.72;4483045;31;20143;-86
2022/06/21 06:12:18;;;;;;;5.95;1.25;;;;;;;24.44;29.07;98208.47;4491234;31;20092;-87
2022/06/21 06:14:50;;;;;;;4.15;0.90;;;;;;;24.57;29.05;98205.97;4491226;31;20096;-86
2022/06/21 06:17:34;;;;;;;3.15;1.00;;;;;;;24.46;28.36;98209.13;4489794;31;20092;-88
2022/06/21 06:19:59;;;;;;;3.85;1.05;;;;;;;24.54;28.65;98209.03;4488526;31;20141;-86
2022/06/21 06:22:38;;;;;;;2.53;0.85;;;;;;;24.44;28.77;98205.78;4496563;31;20115;-90
2022/06/21 06:25:10;;;;;;;3.85;1.05;;;;;;;24.33;28.77;98212.44;4497221;31;20479;-90
2022/06/21 06:28:04;;;;;;;3.17;0.98;;;;;;;24.35;28.81;98207.72;4497825;31;20092;-88
2022/06/21 06:31:05;;;;;;;3.42;1.00;;;;;;;24.38;29.35;98217.25;4489871;31;20100;-88
2022/06/21 06:33:42;;;;;;;4.55;1.17;;;;;;;24.27;29.59;98224.78;4426661;32;20101;-89
2022/06/21 06:36:12;;;;;;;3.65;1.15;;;;;;;24.37;29.95;98211.06;4408213;32;20101;-87
2022/06/21 06:38:37;;;;;;;5.50;1.30;;;;;;;24.15;30.25;98218.22;4431024;32;20235;-87
2022/06/21 06:41:26;;;;;;;4.07;1.08;;;;;;;23.90;31.06;98220.31;4420814;32;20446;-82
2022/06/21 06:43:58;;;;;;;8.27;1.30;;;;;;;24.02;30.95;98229.59;4420675;32;20121;-86
2022/06/21 06:46:35;;;;;;;3.92;1.10;;;;;;;24.09;30.30;98217.09;4418952;32;20106;-84
2022/06/21 06:49:23;;;;;;;4.00;1.00;;;;;;;24.00;30.26;98223.56;4421086;32;20157;-88
2022/06/21 06:51:48;;;;;;;3.62;1.10;;;;;;;24.00;29.91;98228.94;4433880;32;20109;-87
2022/06/21 06:54:55;;;;;;;2.42;1.10;;;;;;;24.10;30.36;98221.44;4432862;32;20131;-84
2022/06/21 06:57:37;;;;;;;5.35;1.50;;;;;;;24.00;30.43;98228.94;4427852;32;20591;-88
2022/06/21 07:00:14;;;;;;;7.20;1.45;;;;;;;24.31;29.90;98209.94;4409113;32;20115;-90
2022/06/21 07:02:45;;;;;;;5.30;1.10;;;;;;;24.16;30.93;98210.97;4424474;32;20112;-89
2022/06/21 07:05:19;;;;;;;2.78;1.20;;;;;;;23.87;31.03;98231.44;4430018;32;20114;-89
2022/06/21 07:07:57;;;;;;;3.95;1.10;;;;;;;24.01;30.39;98232.47;4422667;32;20489;-87
2022/06/21 07:10:25;;;;;;;9.50;1.30;;;;;;;24.01;30.11;98232.47;4449112;31;20458;-87
2022/06/21 07:12:51;;;;;;;;;;;;;;;23.85;31.18;98233.47;4492242;31;20106;-86
2022/06/21 07:15:17;;;;;;;7.25;1.37;;;;;;;24.03;31.59;98239.34;4502286;31;19987;-89
2022/06/21 07:17:51;;;;;;;5.28;1.30;;;;;;;24.10;31.71;98247.50;4503004;31;20088;-85
2022/06/21 07:20:18;;;;;;;3.35;1.20;;;;;;;24.14;31.63;98249.69;4502446;31;20088;-84
2022/06/21 07:22:44;;;;;;;3.58;1.27;;;;;;;24.00;31.82;98261.22;4503339;31;20151;-85
2022/06/21 07:25:26;;;;;;;5.25;1.40;;;;;;;23.81;32.25;98248.28;4503325;31;20092;-85
2022/06/21 07:27:57;;;;;;;4.70;1.45;;;;;;;23.70;32.42;98255.75;4501085;31;20156;-86
2022/06/21 07:30:28;;;;;;;3.97;1.25;;;;;;;23.53;31.55;98259.59;4502867;31;20435;-86
2022/06/21 07:32:56;;;;;;;6.82;1.25;;;;;;;23.56;30.81;98259.22;4503212;31;20148;-86
2022/06/21 07:35:35;;;;;;;5.50;1.62;;;;;;;23.99;30.06;98254.19;4503509;31;20100;-86
2022/06/21 07:38:10;;;;;;;4.70;1.20;;;;;;;23.78;28.42;98251.31;4502311;31;20438;-85
2022/06/21 07:40:49;;;;;;;5.35;1.10;;;;;;;23.79;29.01;98258.41;4503569;31;20163;-86
2022/06/21 07:43:45;;;;;;;5.97;1.50;;;;;;;23.87;29.44;98261.84;4502454;31;20103;-85
2022/06/21 07:46:15;;;;;;;5.25;1.40;;;;;;;23.89;29.43;98256.28;4486373;31;20492;-86
2022/06/21 07:48:46;;;;;;;9.43;1.60;;;;;;;23.86;30.16;98259.34;4502441;31;20079;-85
2022/06/21 07:51:19;;;;;;;3.30;1.10;;;;;;;24.05;29.26;98257.97;4489068;31;20184;-86
2022/06/21 07:53:52;;;;;;;4.93;1.45;;;;;;;24.29;29.60;98257.75;4502339;31;20632;-85
2022/06/21 07:56:24;;;;;;;5.05;1.25;;;;;;;24.37;29.13;98264.06;4502114;31;20112;-85
2022/06/21 07:59:03;;;;;;;6.28;1.45;;;;;;;23.71;29.52;98267.34;4503407;31;20076;-84
2022/06/21 08:07:13;;;;;;;5.97;1.20;;;;;;;24.20;29.27;98263.41;4503451;31;20130;-84
2022/06/21 08:09:45;;;;;;;6.40;1.42;;;;;;;24.06;28.87;98273.94;4488746;31;20091;-84
2022/06/21 08:12:12;;;;;;;3.90;1.40;;;;;;;24.16;28.94;98276.38;4501659;31;20084;-84
2022/06/21 08:14:38;;;;;;;4.37;1.20;;;;;;;24.13;29.14;98282.97;4503338;31;20072;-85
2022/06/21 08:17:03;;;;;;;4.37;1.20;;;;;;;24.22;28.97;98264.91;4502125;31;20387;-85
2022/06/21 08:19:34;;;;;;;5.62;1.40;;;;;;;24.25;29.32;98266.38;4503273;31;20140;-84
2022/06/21 08:21:59;;;;;;;8.05;1.35;;;;;;;24.31;28.70;98271.84;4503283;31;20069;-84
2022/06/21 08:24:33;;;;;;;5.45;1.23;;;;;;;24.16;28.39;98279.06;4503354;31;20610;-85
2022/06/21 08:27:02;;;;;;;4.87;1.30;;;;;;;24.30;28.42;98280.97;4503170;31;20084;-84
2022/06/21 08:29:32;;;;;;;6.82;1.40;;;;;;;24.60;28.19;98282.88;4502969;31;20100;-85
2022/06/21 08:32:06;;;;;;;6.97;1.20;;;;;;;24.32;28.30;98278.09;4502126;31;20439;-84
2022/06/21 08:34:42;;;;;;;5.18;1.15;;;;;;;24.44;28.13;98271.22;4502004;31;20123;-85
2022/06/21 08:37:26;;;;;;;5.37;1.10;;;;;;;24.87;28.47;98271.41;4501894;31;20126;-85
2022/06/21 08:39:55;;;;;;;6.05;1.20;;;;;;;24.92;27.78;98278.94;4501962;31;20437;-85
2022/06/21 08:42:45;;;;;;;4.85;1.35;;;;;;;25.00;27.63;98280.69;4501827;31;20443;-85
2022/06/21 08:48:19;;;;;;;9.60;1.55;;;;;;;24.91;27.21;98277.25;4503067;31;20172;-84
2022/06/21 08:51:18;;;;;;;10.40;1.35;;;;;;;24.67;27.37;98294.56;4503159;31;20144;-85
2022/06/21 08:53:53;;;;;;;6.20;1.30;;;;;;;24.56;27.13;98286.94;4501953;31;20103;-84
2022/06/21 08:56:21;;;;;;;3.67;1.17;;;;;;;24.63;26.43;98304.88;4502999;31;20092;-84
2022/06/21 08:59:05;;;;;;;6.65;1.27;;;;;;;24.57;26.95;98291.31;4502881;31;20134;-85
2022/06/21 09:01:42;;;;;;;7.47;1.30;;;;;;;24.76;26.65;98290.72;4503046;31;20100;-84
2022/06/21 09:04:10;;;;;;;4.20;1.50;;;;;;;24.72;26.89;98301.06;4502944;31;20116;-86
2022/06/21 09:06:58;;;;;;;4.43;1.20;;;;;;;24.72;26.74;98294.84;4502970;31;20088;-87
2022/06/21 09:09:43;;;;;;;11.35;1.50;;;;;;;24.54;26.96;98303.28;4502027;31;20179;-87
2022/06/21 09:12:29;;;;;;;5.20;1.35;;;;;;;24.82;26.76;98286.47;4502013;31;20148;-87
2022/06/21 09:15:07;;;;;;;8.48;1.75;;;;;;;25.05;27.28;98286.34;4502751;31;20148;-85
2022/06/21 09:17:48;;;;;;;6.37;1.30;;;;;;;24.71;27.45;98295.88;4502805;31;20084;-85
2022/06/21 09:20:32;;;;;;;4.50;1.33;;;;;;;24.86;27.17;98299.38;4501576;31;20096;-85
2022/06/21 09:23:39;;;;;;;6.97;1.20;;;;;;;24.89;26.55;98292.78;4502499;31;20139;-86
2022/06/21 09:26:12;;;;;;;3.53;0.93;;;;;;;24.88;26.57;98285.75;4453657;32;20092;-85
2022/06/21 09:28:44;;;;;;;9.60;1.30;;;;;;;25.06;25.67;98298.81;4440263;32;20583;-85
2022/06/21 09:31:18;;;;;;;4.75;1.33;;;;;;;24.85;24.34;98288.78;4440501;32;20512;-85
2022/06/21 09:34:00;;;;;;;3.83;1.00;;;;;;;24.81;24.53;98276.72;4440297;32;20388;-85
2022/06/21 09:36:35;;;;;;;5.00;1.00;;;;;;;24.96;23.79;98295.56;4440289;32;20081;-85
2022/06/21 09:39:06;;;;;;;3.78;1.02;;;;;;;24.34;23.61;98309.19;4453384;32;20085;-85
2022/06/21 09:41:57;;;;;;;5.18;1.00;;;;;;;24.77;23.98;98307.75;4453291;32;20105;-85
2022/06/21 09:44:42;;;;;;;5.03;1.05;;;;;;;24.62;24.34;98305.88;4440630;32;20101;-85
2022/06/21 09:47:48;;;;;;;7.22;1.20;;;;;;;24.27;24.25;98299.34;4440362;32;20093;-85
2022/06/21 09:50:27;;;;;;;4.37;1.20;;;;;;;24.27;20.92;98313.62;4427319;32;20081;-86
2022/06/21 09:52:56;;;;;;;6.68;1.30;;;;;;;24.39;22.54;98295.16;4440133;32;20132;-86
2022/06/21 09:56:11;;;;;;;3.85;0.90;;;;;;;24.04;23.47;98308.28;4440064;32;20105;-86
2022/06/21 09:58:48;;;;;;;5.00;1.10;;;;;;;24.19;23.45;98302.13;4407100;32;20104;-84
2022/06/21 10:01:28;;;;;;;5.82;1.10;;;;;;;23.98;23.92;98294.72;4451904;32;20081;-85
2022/06/21 10:03:59;;;;;;;6.37;1.10;;;;;;;24.00;24.11;98300.75;4440193;32;20085;-85
2022/06/21 10:06:25;;;;;;;1.73;0.95;;;;;;;24.06;24.45;98300.84;4453189;32;20109;-86
2022/06/21 10:09:02;;;;;;;3.60;1.10;;;;;;;24.32;24.54;98294.25;4452793;32;20178;-86
2022/06/21 10:11:52;;;;;;;4.97;1.37;;;;;;;24.31;25.07;98276.41;4452806;32;20625;-85
2022/06/21 10:14:44;;;;;;;7.80;1.10;;;;;;;24.47;25.17;98273.56;4439838;32;20123;-85
2022/06/21 10:17:18;;;;;;;6.93;1.05;;;;;;;24.58;24.44;98280.34;4452804;32;20373;-85
2022/06/21 10:20:03;;;;;;;5.97;1.17;;;;;;;24.56;24.74;98284.25;4452749;32;20105;-85
2022/06/21 10:22:52;;;;;;;3.55;1.08;;;;;;;24.60;24.61;98283.69;4452664;32;20108;-86
2022/06/21 10:25:50;;;;;;;4.85;0.90;;;;;;;24.55;24.87;98287.97;4439790;32;20283;-86
2022/06/21 10:28:41;;;;;;;5.45;1.30;;;;;;;24.56;24.32;98284.25;4439547;32;20475;-85
2022/06/21 10:31:18;;;;;;;4.35;0.95;;;;;;;24.78;22.18;98277.09;4439663;32;20072;-85
2022/06/21 10:33:56;;;;;;;3.83;0.90;;;;;;;24.76;23.18;98279.13;4467312;31;20094;-85
2022/06/21 10:36:28;;;;;;;3.75;0.85;;;;;;;24.61;23.16;98280.00;4503882;31;20118;-85
2022/06/21 10:39:15;;;;;;;3.85;1.17;;;;;;;24.56;24.26;98284.25;4503853;31;20504;-86
2022/06/21 10:45:13;;;;;;;4.47;1.23;;;;;;;24.71;25.65;98293.16;4504009;31;20098;-86
2022/06/21 10:47:58;;;;;;;6.70;1.17;;;;;;;24.66;25.16;98309.87;4502664;31;20123;-86
2022/06/21 10:50:50;;;;;;;7.03;1.10;;;;;;;24.95;25.68;98289.31;4503841;31;20189;-85
2022/06/21 10:53:59;;;;;;;5.05;1.00;;;;;;;25.10;25.27;98298.22;4503979;31;20072;-86
2022/06/21 11:02:56;;;;;;;6.20;1.17;;;;;;;24.99;25.17;98317.56;4503957;31;20174;-86
2022/06/21 11:05:56;;;;;;;4.30;1.10;;;;;;;25.12;24.53;98300.75;4503830;31;20140;-85
2022/06/21 11:08:58;;;;;;;5.07;1.10;;;;;;;25.03;24.11;98324.25;4489307;31;20211;-86
2022/06/21 11:11:34;;;;;;;4.50;1.10;;;;;;;25.25;24.09;98308.19;4503745;31;20128;-85
2022/06/21 11:14:09;;;;;;;5.93;0.93;;;;;;;24.84;23.99;98323.00;4502599;31;20096;-85
2022/06/21 11:16:49;;;;;;;5.62;1.10;;;;;;;24.95;24.50;98313.59;4503604;31;20080;-85
2022/06/21 11:19:39;;;;;;;6.07;1.30;;;;;;;24.98;25.05;98309.69;4503631;31;20067;-85
2022/06/21 11:22:43;;;;;;;6.97;1.20;;;;;;;24.90;25.45;98321.41;4503736;31;20119;-85
2022/06/21 11:25:12;;;;;;;6.45;1.17;;;;;;;25.01;24.46;98312.81;4502592;31;20557;-86
2022/06/21 11:27:48;;;;;;;6.05;1.10;;;;;;;24.86;25.67;98318.25;4503325;31;20110;-84
2022/06/21 11:30:55;;;;;;;5.10;1.20;;;;;;;25.15;24.31;98321.06;4503597;31;20443;-85
2022/06/21 11:33:25;;;;;;;5.00;1.00;;;;;;;25.38;24.70;98321.81;4426140;32;20109;-85
2022/06/21 11:36:19;;;;;;;3.85;0.98;;;;;;;25.42;24.17;98325.81;4425814;32;20113;-86
2022/06/21 11:38:50;;;;;;;5.28;1.10;;;;;;;25.55;24.12;98319.72;4438748;32;20082;-86
2022/06/21 11:44:55;;;;;;;5.50;1.20;;;;;;;25.53;23.88;98332.56;4438780;32;20498;-84
2022/06/21 11:47:29;;;;;;;6.22;1.05;;;;;;;24.86;24.84;98331.72;4438780;32;20117;-85
2022/06/21 11:50:02;;;;;;;5.60;1.25;;;;;;;25.28;24.17;98322.13;4438743;32;20085;-85
2022/06/21 11:52:31;;;;;;;7.43;1.10;;;;;;;24.90;25.00;98324.94;4438692;32;20144;-86
2022/06/21 11:55:18;;;;;;;3.90;1.10;;;;;;;25.05;25.31;98324.94;4438610;32;20163;-85
2022/06/21 11:57:49;;;;;;;3.05;1.00;;;;;;;25.43;25.35;98326.63;4438736;32;20441;-85
2022/06/21 12:00:24;;;;;;;6.53;1.23;;;;;;;25.59;25.79;98314.78;4438522;32;20464;-85
2022/06/21 12:03:13;;;;;;;6.32;1.40;;;;;;;25.64;25.33;98306.94;4425858;32;20154;-85
2022/06/21 12:05:51;;;;;;;6.45;1.17;;;;;;;25.68;25.53;98309.06;4425868;32;20093;-85
2022/06/21 12:08:26;;;;;;;4.78;1.30;;;;;;;25.73;25.88;98313.88;4444957;31;20514;-86
2022/06/21 12:11:12;;;;;;;5.93;1.30;;;;;;;25.76;26.00;98304.56;4503409;31;20092;-85
2022/06/21 12:13:48;;;;;;;5.57;1.50;;;;;;;25.89;26.29;98285.81;4502124;31;20108;-86
2022/06/21 12:16:37;;;;;;;5.80;1.33;;;;;;;25.98;25.37;98289.22;4503424;31;20110;-85
2022/06/21 12:19:07;;;;;;;;;;;;;;;26.04;25.65;98289.28;4489137;31;20133;-85
2022/06/21 12:21:37;;;;;;;5.15;1.23;;;;;;;25.99;25.99;98288.19;4502195;31;20417;-86
2022/06/21 12:24:05;;;;;;;6.30;1.30;;;;;;;25.84;26.08;98288.25;4503215;31;20431;-85
2022/06/21 12:26:33;;;;;;;8.02;1.40;;;;;;;25.88;26.38;98284.13;4501940;31;20165;-85
2022/06/21 12:29:00;;;;;;;5.43;1.00;;;;;;;25.81;25.57;98284.06;4501868;31;20129;-85
2022/06/21 12:31:27;;;;;;;4.00;1.10;;;;;;;25.72;24.96;98279.84;4503234;31;20146;-85
2022/06/21 12:34:18;;;;;;;5.07;1.42;;;;;;;25.76;25.10;98282.97;4503123;31;20109;-85